This is the latest recevied weather packets stored in our database for station/object N4OGP-WX. If no packets are shown the sender has not sent any weather packets the latest 10 day(s).
| Time | Temp. | Humidity | Pressure | Rain* | Wind** | Luminosity | Snow |
|---|---|---|---|---|---|---|---|
| 1777605650 | 22.78° C | 84% | 1009.9 hPa | 0 mm | - | - | - |
| 1777605560 | 22.78° C | 84% | 1009.9 hPa | 0 mm | - | - | - |
| 1777605500 | 22.78° C | 83% | 1009.9 hPa | 0 mm | - | - | - |
| 1777605440 | 23.89° C | 42% | 1020.4 hPa | 0 mm | - | - | - |
| 1777605380 | 22.78° C | 83% | 1009.9 hPa | 0 mm | - | - | - |
| 1777605290 | 22.78° C | 83% | 1009.9 hPa | 0 mm | - | - | - |
| 1777605200 | 23.89° C | 42% | 1020.4 hPa | 0 mm | - | - | - |
| 1777605110 | 23.89° C | 42% | 1020.4 hPa | 0 mm | - | - | - |
| 1777605051 | 22.78° C | 83% | 1009.9 hPa | 0 mm | - | - | - |
| 1777604990 | 23.33° C | 82% | 1009.9 hPa | 0 mm | - | - | - |
| 1777604900 | 23.33° C | 82% | 1009.8 hPa | 0 mm | - | - | - |
| 1777604810 | 23.33° C | 81% | 1009.9 hPa | 0 mm | - | - | - |
| 1777604720 | 23.33° C | 81% | 1009.9 hPa | 0 mm | - | - | - |
| 1777604660 | 23.33° C | 81% | 1010 hPa | 0 mm | - | - | - |
| 1777604600 | 23.33° C | 80% | 1010 hPa | 0 mm | - | - | - |
| 1777604540 | 23.89° C | 42% | 1020.4 hPa | 0 mm | - | - | - |
| 1777604480 | 23.33° C | 80% | 1010.1 hPa | 0 mm | - | - | - |
| 1777604390 | 23.89° C | 42% | 1020.4 hPa | 0 mm | - | - | - |
| 1777604330 | 23.89° C | 42% | 1020.4 hPa | 0 mm | - | - | - |
| 1777604240 | 23.89° C | 42% | 1020.4 hPa | 0 mm | - | - | - |
| 1777604181 | 23.33° C | 79% | 1010.2 hPa | 0 mm | - | - | - |
| 1777604120 | 23.89° C | 42% | 1020.4 hPa | 0 mm | - | - | - |
| 1777604060 | 23.89° C | 42% | 1020.4 hPa | 0 mm | - | - | - |
| 1777603970 | 23.33° C | 79% | 1010.3 hPa | 0 mm | - | - | - |
| 1777603880 | 23.89° C | 42% | 1020.4 hPa | 0 mm | - | - | - |
* Rain latest hour (hover to see other rain measurements)
** Current wind speed in m/s (hover to see current wind gust speed)